Time;durP1;ratioP1;P1;durP2;ratioP2;P2;SDS_P1;SDS_P2;PMS_P1;PMS_P2;Temp;Humidity;BMP_temperature;BMP_pressure;BME280_temperature;BME280_humidity;BME280_pressure;Samples;Min_cycle;Max_cycle;Signal;HPM_P1;HPM_P2
2023/12/05 00:00:42;;;;;;;18.40;9.73;;;2.00;99.90;;;;;;5097399;28;20026;-91
2023/12/05 00:03:15;;;;;;;22.23;11.20;;;2.00;99.90;;;;;;5081850;28;20059;-88
2023/12/05 00:05:41;;;;;;;24.03;11.10;;;2.00;99.90;;;;;;5077753;28;20039;-82
2023/12/05 00:08:09;;;;;;;22.77;11.03;;;2.00;99.90;;;;;;5096755;28;20028;-91
2023/12/05 00:10:34;;;;;;;23.03;10.90;;;2.00;99.90;;;;;;5096010;28;20119;-90
2023/12/05 00:13:00;;;;;;;22.77;10.90;;;2.00;99.90;;;;;;5096286;28;20067;-91
2023/12/05 00:15:26;;;;;;;22.33;11.07;;;2.00;99.90;;;;;;5096020;28;20116;-91
2023/12/05 00:17:52;;;;;;;25.73;11.20;;;2.00;99.90;;;;;;5095294;28;20031;-88
2023/12/05 00:20:23;;;;;;;20.97;11.03;;;2.00;99.90;;;;;;5095789;28;20392;-90
2023/12/05 00:22:48;;;;;;;23.93;11.97;;;2.00;99.90;;;;;;5094846;28;20024;-90
2023/12/05 00:25:14;;;;;;;23.80;12.03;;;2.00;99.90;;;;;;5095175;28;20031;-90
2023/12/05 00:27:40;;;;;;;21.83;11.63;;;2.10;99.90;;;;;;5093148;28;20024;-92
2023/12/05 00:30:06;;;;;;;24.67;11.30;;;2.10;99.90;;;;;;5081264;28;20030;-88
2023/12/05 00:32:31;;;;;;;19.67;10.77;;;2.10;99.90;;;;;;5086148;28;20093;-87
2023/12/05 00:34:57;;;;;;;21.53;11.17;;;2.10;99.90;;;;;;5078157;28;20190;-92
2023/12/05 00:37:25;;;;;;;24.60;10.83;;;2.10;99.90;;;;;;5094709;28;20051;-92
2023/12/05 00:39:54;;;;;;;22.80;11.83;;;2.10;99.90;;;;;;5093022;28;20131;-90
2023/12/05 00:42:22;;;;;;;24.83;12.03;;;2.10;99.90;;;;;;5096040;28;20035;-89
2023/12/05 00:44:48;;;;;;;24.73;11.93;;;2.10;99.90;;;;;;5094818;28;20031;-88
2023/12/05 00:47:16;;;;;;;22.27;11.27;;;2.10;99.90;;;;;;5095283;28;20526;-88
2023/12/05 00:49:44;;;;;;;24.50;11.73;;;2.10;99.90;;;;;;5092286;28;20028;-88
2023/12/05 00:52:10;;;;;;;24.30;11.23;;;2.10;99.90;;;;;;5075290;28;20044;-91
2023/12/05 00:54:35;;;;;;;24.80;11.17;;;2.10;99.90;;;;;;5083591;28;20020;-87
2023/12/05 00:57:01;;;;;;;22.13;10.80;;;2.10;99.90;;;;;;5080924;28;20484;-88
2023/12/05 00:59:27;;;;;;;22.57;11.57;;;2.10;99.90;;;;;;5092661;28;20035;-88
2023/12/05 01:01:52;;;;;;;22.73;11.60;;;2.10;99.90;;;;;;5078264;28;20020;-87
2023/12/05 01:04:18;;;;;;;25.43;12.27;;;2.20;99.90;;;;;;5087251;28;20046;-89
2023/12/05 01:06:44;;;;;;;22.73;11.63;;;2.20;99.90;;;;;;5085551;28;20028;-89
2023/12/05 01:09:14;;;;;;;22.17;11.27;;;2.10;99.90;;;;;;5094843;28;20028;-89
2023/12/05 01:11:40;;;;;;;23.53;12.60;;;2.10;99.90;;;;;;5094246;28;20035;-88
2023/12/05 01:14:08;;;;;;;28.87;12.13;;;2.10;99.90;;;;;;5094142;28;20020;-89
2023/12/05 01:16:33;;;;;;;25.73;12.27;;;2.10;99.90;;;;;;5094777;28;20032;-87
2023/12/05 01:18:59;;;;;;;18.90;10.70;;;2.10;99.90;;;;;;5081090;28;20078;-94
2023/12/05 01:21:25;;;;;;;24.17;11.00;;;2.10;99.90;;;;;;5090810;28;20035;-91
2023/12/05 01:23:50;;;;;;;23.20;11.20;;;2.20;99.90;;;;;;5077154;28;20036;-90
2023/12/05 01:26:16;;;;;;;21.97;11.23;;;2.20;99.90;;;;;;5093706;28;20028;-88
2023/12/05 01:28:41;;;;;;;22.67;11.20;;;2.20;99.90;;;;;;5093473;28;20050;-84
2023/12/05 01:31:07;;;;;;;23.17;10.90;;;2.20;99.90;;;;;;5094201;28;20016;-85
2023/12/05 01:33:33;;;;;;;23.87;11.23;;;2.30;99.90;;;;;;5095522;28;20054;-86
2023/12/05 01:35:58;;;;;;;24.33;10.90;;;2.30;99.90;;;;;;5093647;28;20487;-89
2023/12/05 01:38:33;;;;;;;20.77;10.70;;;2.30;99.90;;;;;;5093882;28;20385;-91
2023/12/05 01:41:01;;;;;;;23.10;10.83;;;2.30;99.90;;;;;;5094205;28;20055;-91
2023/12/05 01:43:32;;;;;;;23.23;11.17;;;2.30;99.90;;;;;;5093992;28;20081;-91
2023/12/05 01:46:01;;;;;;;21.03;10.63;;;2.30;99.90;;;;;;5094671;28;20024;-90
2023/12/05 01:48:28;;;;;;;19.87;11.17;;;2.30;99.90;;;;;;5108905;28;20105;-88
2023/12/05 01:50:55;;;;;;;19.53;10.93;;;2.30;99.90;;;;;;5093767;28;20046;-86
2023/12/05 01:53:22;;;;;;;20.57;10.67;;;2.30;99.90;;;;;;5095309;28;20028;-86
2023/12/05 01:55:49;;;;;;;23.23;11.67;;;2.30;99.90;;;;;;5094051;28;20058;-86
2023/12/05 01:58:15;;;;;;;24.40;11.53;;;2.30;99.90;;;;;;5095579;28;20024;-86
2023/12/05 02:00:42;;;;;;;23.67;11.53;;;2.20;99.90;;;;;;5093839;28;20031;-87
2023/12/05 02:03:08;;;;;;;20.00;10.70;;;2.20;99.90;;;;;;5095173;28;20035;-86
2023/12/05 02:05:35;;;;;;;22.20;10.70;;;2.30;99.90;;;;;;5093888;28;20085;-86
2023/12/05 02:08:01;;;;;;;24.30;10.57;;;2.20;99.90;;;;;;5093903;28;20036;-86
2023/12/05 02:10:26;;;;;;;22.77;11.80;;;2.20;99.90;;;;;;5095232;28;20024;-85
2023/12/05 02:12:52;;;;;;;22.47;10.70;;;2.30;99.90;;;;;;5093672;28;20429;-86
2023/12/05 02:15:18;;;;;;;21.27;10.33;;;2.30;99.90;;;;;;5093870;28;20028;-86
2023/12/05 02:18:12;;;;;;;23.87;10.50;;;2.30;99.90;;;;;;5093697;28;20491;-86
2023/12/05 02:21:05;;;;;;;25.30;10.67;;;2.30;99.90;;;;;;5093734;28;20028;-86
2023/12/05 02:23:45;;;;;;;22.40;10.90;;;2.40;99.90;;;;;;5094205;28;20040;-90
2023/12/05 02:26:41;;;;;;;20.93;9.93;;;2.40;99.90;;;;;;5094136;28;20108;-89
2023/12/05 02:29:07;;;;;;;19.57;9.40;;;2.30;99.90;;;;;;5094854;28;20043;-89
2023/12/05 02:31:33;;;;;;;17.63;9.50;;;2.30;99.90;;;;;;5093904;28;20476;-90
2023/12/05 02:33:59;;;;;;;17.37;9.00;;;2.40;99.90;;;;;;5093227;28;20035;-89
2023/12/05 02:37:03;;;;;;;20.43;9.40;;;2.50;99.90;;;;;;5094736;28;20453;-90
2023/12/05 02:39:40;;;;;;;18.30;9.00;;;2.60;99.90;;;;;;5093130;28;20052;-89
2023/12/05 02:42:11;;;;;;;18.40;9.23;;;2.60;99.90;;;;;;5093293;28;20028;-87
2023/12/05 02:44:42;;;;;;;16.77;8.80;;;2.60;99.90;;;;;;5094507;28;20484;-86
2023/12/05 02:47:12;;;;;;;19.60;9.00;;;2.70;99.90;;;;;;5093400;28;20024;-87
2023/12/05 02:49:37;;;;;;;18.30;8.20;;;2.80;99.90;;;;;;5093615;28;20050;-87
2023/12/05 02:52:03;;;;;;;15.70;8.10;;;2.90;99.90;;;;;;5093053;28;20027;-87
2023/12/05 02:54:29;;;;;;;17.10;7.43;;;2.90;99.90;;;;;;5093515;28;20020;-86
2023/12/05 02:56:55;;;;;;;15.70;7.63;;;3.00;99.90;;;;;;5093841;28;20073;-87
2023/12/05 02:59:20;;;;;;;16.23;7.80;;;3.00;99.90;;;;;;5093321;28;20020;-87
2023/12/05 03:01:46;;;;;;;15.60;8.07;;;3.10;99.90;;;;;;5093819;28;20020;-88
2023/12/05 03:04:11;;;;;;;15.47;7.13;;;3.10;99.90;;;;;;5093144;28;20078;-87
2023/12/05 03:06:37;;;;;;;13.57;6.70;;;3.20;99.90;;;;;;5093368;28;20438;-87
2023/12/05 03:09:03;;;;;;;13.27;6.90;;;3.20;99.90;;;;;;5092654;28;20171;-87
2023/12/05 03:11:30;;;;;;;13.63;6.87;;;3.30;99.90;;;;;;5077318;28;20024;-87
2023/12/05 03:13:55;;;;;;;13.97;7.20;;;3.30;99.90;;;;;;5072447;28;20453;-85
2023/12/05 03:16:21;;;;;;;13.23;6.30;;;3.30;99.90;;;;;;5074089;28;20039;-85
2023/12/05 03:18:47;;;;;;;12.73;6.93;;;3.40;99.90;;;;;;5072916;28;20021;-85
2023/12/05 03:21:17;;;;;;;12.60;6.80;;;3.40;99.90;;;;;;5072749;28;20028;-85
2023/12/05 03:23:43;;;;;;;12.10;6.50;;;3.40;99.90;;;;;;5072885;28;20158;-84
2023/12/05 03:26:19;;;;;;;11.83;6.13;;;3.50;99.90;;;;;;5072476;28;20115;-86
2023/12/05 03:28:45;;;;;;;13.60;6.40;;;3.50;99.90;;;;;;5072580;28;20021;-88
2023/12/05 03:31:11;;;;;;;11.80;6.67;;;3.50;99.90;;;;;;5072916;28;20055;-85
2023/12/05 03:33:37;;;;;;;10.27;5.87;;;3.50;99.90;;;;;;5073760;28;20033;-85
2023/12/05 03:36:03;;;;;;;12.67;6.27;;;3.60;99.90;;;;;;5072286;28;20084;-86
2023/12/05 03:38:28;;;;;;;10.27;5.30;;;3.60;99.90;;;;;;5072864;28;20028;-86
2023/12/05 03:40:55;;;;;;;11.77;4.90;;;3.70;99.90;;;;;;5071894;28;20055;-87
2023/12/05 03:43:21;;;;;;;9.03;4.80;;;3.70;99.90;;;;;;5072376;28;20036;-88
2023/12/05 03:45:47;;;;;;;8.83;4.50;;;3.80;99.90;;;;;;5072394;28;20028;-88
2023/12/05 03:48:13;;;;;;;7.53;4.03;;;3.90;99.90;;;;;;5073584;28;20458;-88
2023/12/05 03:50:39;;;;;;;8.10;4.03;;;3.90;99.90;;;;;;5072755;28;20020;-86
2023/12/05 03:53:04;;;;;;;8.63;3.90;;;4.00;99.90;;;;;;5072290;28;20512;-87
2023/12/05 03:55:35;;;;;;;6.30;3.40;;;4.00;99.90;;;;;;5072068;28;20428;-87
2023/12/05 03:58:01;;;;;;;6.77;3.40;;;4.10;99.90;;;;;;5072249;28;20461;-87
2023/12/05 04:00:26;;;;;;;7.33;3.43;;;4.20;99.90;;;;;;5072489;28;20115;-87
2023/12/05 04:02:52;;;;;;;6.07;2.70;;;4.20;99.90;;;;;;5072008;28;20437;-87
2023/12/05 04:05:18;;;;;;;8.30;2.80;;;4.30;99.90;;;;;;5072378;28;20032;-86
2023/12/05 04:07:44;;;;;;;4.63;2.80;;;4.30;99.90;;;;;;5072410;28;20024;-87
2023/12/05 04:10:10;;;;;;;3.50;2.27;;;4.40;99.90;;;;;;5073113;28;20025;-87
2023/12/05 04:12:37;;;;;;;4.70;2.20;;;4.50;99.90;;;;;;5072455;28;20032;-87
2023/12/05 04:15:04;;;;;;;7.13;2.40;;;4.50;99.90;;;;;;5072032;28;20028;-85
2023/12/05 04:17:30;;;;;;;4.30;2.00;;;4.60;99.90;;;;;;5072714;28;20047;-86
2023/12/05 04:19:55;;;;;;;3.10;1.50;;;4.60;99.90;;;;;;5071581;28;20024;-86
2023/12/05 04:22:21;;;;;;;2.40;1.30;;;4.70;99.90;;;;;;5073162;28;20512;-87
2023/12/05 04:24:46;;;;;;;3.80;1.20;;;4.80;99.90;;;;;;5072317;28;20067;-86
2023/12/05 04:27:12;;;;;;;2.87;1.10;;;4.80;99.90;;;;;;5072913;28;20099;-86
2023/12/05 04:29:38;;;;;;;1.63;1.10;;;4.90;99.90;;;;;;5074584;28;20020;-83
2023/12/05 04:32:03;;;;;;;2.20;1.00;;;4.90;99.90;;;;;;5076369;28;20080;-84
2023/12/05 04:34:29;;;;;;;3.07;1.00;;;5.00;99.90;;;;;;5075947;28;20115;-84
2023/12/05 04:36:54;;;;;;;2.63;1.20;;;5.00;99.90;;;;;;5075037;28;20023;-84
2023/12/05 04:39:20;;;;;;;3.83;0.93;;;5.10;99.90;;;;;;5076324;28;20056;-84
2023/12/05 04:41:46;;;;;;;2.20;0.80;;;5.10;99.90;;;;;;5075675;28;20473;-84
2023/12/05 04:44:11;;;;;;;1.33;0.70;;;5.20;99.90;;;;;;5074601;28;20082;-84
2023/12/05 04:46:37;;;;;;;1.10;0.90;;;5.30;99.90;;;;;;5075738;28;20035;-88
2023/12/05 04:49:03;;;;;;;1.27;0.63;;;5.30;99.90;;;;;;5075129;28;20454;-89
2023/12/05 04:51:29;;;;;;;1.33;0.60;;;5.30;99.90;;;;;;5075408;28;20055;-88
2023/12/05 04:53:55;;;;;;;0.70;0.50;;;5.30;99.90;;;;;;5074953;28;20032;-88
2023/12/05 04:56:20;;;;;;;1.80;0.50;;;5.40;99.90;;;;;;5076295;28;20025;-88
2023/12/05 04:58:46;;;;;;;1.17;0.60;;;5.50;99.90;;;;;;5075687;28;20038;-89
2023/12/05 05:01:11;;;;;;;2.43;0.60;;;5.50;99.90;;;;;;5075115;28;20033;-89
2023/12/05 05:03:37;;;;;;;2.20;0.60;;;5.50;99.90;;;;;;5076252;28;20477;-89
2023/12/05 05:06:03;;;;;;;0.97;0.43;;;5.50;99.90;;;;;;5074702;28;20538;-90
2023/12/05 05:08:28;;;;;;;2.63;0.60;;;5.60;99.90;;;;;;5075379;28;20021;-91
2023/12/05 05:10:54;;;;;;;0.70;0.50;;;5.60;99.90;;;;;;5074743;28;20033;-87
2023/12/05 05:13:20;;;;;;;4.00;0.70;;;5.70;99.90;;;;;;5075278;28;20469;-87
2023/12/05 05:15:45;;;;;;;1.80;0.60;;;5.70;99.90;;;;;;5075097;28;20043;-92
2023/12/05 05:18:11;;;;;;;0.83;0.60;;;5.70;99.90;;;;;;5074765;28;20086;-93
2023/12/05 05:20:36;;;;;;;2.80;0.60;;;5.70;99.90;;;;;;5077707;28;20024;-93
2023/12/05 05:23:03;;;;;;;1.73;0.50;;;5.80;99.90;;;;;;5074874;28;20032;-94
2023/12/05 05:25:28;;;;;;;5.03;0.60;;;5.90;99.90;;;;;;5074497;28;20056;-94
2023/12/05 05:27:54;;;;;;;2.57;0.57;;;5.90;99.90;;;;;;5074545;28;20027;-92
2023/12/05 05:30:20;;;;;;;2.27;0.67;;;5.90;99.90;;;;;;5074472;28;20066;-94
2023/12/05 05:32:46;;;;;;;1.80;0.50;;;5.90;99.90;;;;;;5075144;28;20369;-93
2023/12/05 05:35:16;;;;;;;1.50;0.60;;;5.90;99.90;;;;;;5075464;28;20439;-94
2023/12/05 05:37:44;;;;;;;0.83;0.40;;;6.00;99.90;;;;;;5074910;28;20020;-93
2023/12/05 05:40:10;;;;;;;2.93;0.50;;;6.00;99.90;;;;;;5073546;28;20367;-93
2023/12/05 05:42:44;;;;;;;1.40;0.50;;;6.00;99.90;;;;;;5075029;28;20458;-94
2023/12/05 05:45:10;;;;;;;2.47;0.73;;;6.10;99.90;;;;;;5075263;28;20031;-95
2023/12/05 05:47:36;;;;;;;4.90;0.70;;;6.00;99.90;;;;;;5076461;28;20028;-93
2023/12/05 05:50:11;;;;;;;3.70;0.70;;;6.00;99.90;;;;;;5074578;28;20032;-94
2023/12/05 05:52:37;;;;;;;3.23;0.60;;;6.10;99.90;;;;;;5074804;28;20446;-91
2023/12/05 05:55:03;;;;;;;3.53;0.77;;;6.10;99.90;;;;;;5073845;28;20031;-91
2023/12/05 05:57:29;;;;;;;1.17;0.67;;;6.10;99.90;;;;;;5074616;28;20032;-91
2023/12/05 05:59:54;;;;;;;2.70;0.80;;;6.20;99.90;;;;;;5073777;28;20412;-92
2023/12/05 06:02:27;;;;;;;2.80;0.60;;;6.20;99.90;;;;;;5074369;28;20035;-95
2023/12/05 06:05:04;;;;;;;2.40;0.70;;;6.20;99.90;;;;;;5074560;28;20050;-93
2023/12/05 06:07:34;;;;;;;1.60;0.70;;;6.20;99.90;;;;;;5074353;28;20017;-94
2023/12/05 06:10:12;;;;;;;;;;;;;;;;;;;;;
2023/12/05 06:12:41;;;;;;;2.83;0.70;;;6.30;99.90;;;;;;5075700;28;20346;-91
2023/12/05 06:15:09;;;;;;;3.67;0.60;;;6.30;99.90;;;;;;5074523;28;20052;-91
2023/12/05 06:17:34;;;;;;;2.07;0.50;;;6.30;99.90;;;;;;5073952;28;20046;-91
2023/12/05 06:20:00;;;;;;;2.63;0.57;;;6.40;99.90;;;;;;5073501;28;20074;-92
2023/12/05 06:22:36;;;;;;;;;;;;;;;;;;;;;
2023/12/05 06:25:06;;;;;;;3.77;0.70;;;6.40;99.90;;;;;;5074710;28;20028;-93
2023/12/05 06:27:40;;;;;;;1.77;0.70;;;6.40;99.90;;;;;;5074028;28;20032;-93
2023/12/05 06:30:20;;;;;;;1.43;0.60;;;6.50;99.90;;;;;;5073566;28;20078;-92
2023/12/05 06:32:53;;;;;;;1.67;0.50;;;6.50;99.90;;;;;;5073961;28;20355;-93
2023/12/05 06:35:39;;;;;;;3.43;0.70;;;6.60;99.90;;;;;;5074409;28;20021;-94
2023/12/05 06:38:17;;;;;;;2.27;0.60;;;6.60;99.90;;;;;;5073290;28;20025;-92
2023/12/05 06:40:44;;;;;;;4.97;0.60;;;6.60;99.90;;;;;;5073396;28;20049;-94
2023/12/05 06:43:16;;;;;;;4.83;0.60;;;6.70;99.90;;;;;;5073302;28;20032;-95
2023/12/05 06:45:42;;;;;;;1.70;0.38;;;6.60;99.90;;;;;;5073546;28;20504;-94
2023/12/05 06:48:17;;;;;;;3.03;0.50;;;6.60;99.90;;;;;;5072634;28;20024;-94
2023/12/05 06:50:46;;;;;;;2.73;0.90;;;6.60;99.90;;;;;;5073776;28;20032;-93
2023/12/05 06:53:21;;;;;;;2.37;0.63;;;6.60;99.90;;;;;;5072693;28;20032;-92
2023/12/05 06:55:48;;;;;;;3.03;0.60;;;6.60;99.90;;;;;;5073620;28;20021;-92
2023/12/05 06:58:14;;;;;;;1.77;0.80;;;6.60;99.90;;;;;;5072633;28;20177;-92
2023/12/05 07:00:45;;;;;;;6.03;0.80;;;6.60;99.90;;;;;;5073315;28;20040;-91
2023/12/05 07:03:13;;;;;;;3.80;0.52;;;6.50;99.90;;;;;;5072817;28;20056;-91
2023/12/05 07:05:46;;;;;;;2.07;0.67;;;6.60;99.90;;;;;;5073606;28;20044;-92
2023/12/05 07:08:15;;;;;;;1.10;0.50;;;6.60;99.90;;;;;;5072657;28;20028;-92
2023/12/05 07:10:41;;;;;;;2.63;0.53;;;6.50;99.90;;;;;;5073126;28;20458;-91
2023/12/05 07:13:06;;;;;;;1.60;0.60;;;6.50;99.90;;;;;;5072567;28;20024;-90
2023/12/05 07:15:32;;;;;;;1.73;0.57;;;6.60;99.90;;;;;;5074124;28;20070;-91
2023/12/05 07:18:00;;;;;;;1.27;0.40;;;6.60;99.90;;;;;;5072931;28;20021;-90
2023/12/05 07:20:26;;;;;;;3.10;0.50;;;6.60;99.90;;;;;;5073274;28;20049;-90
2023/12/05 07:22:51;;;;;;;0.40;0.40;;;6.60;99.90;;;;;;5072844;28;20441;-91
2023/12/05 07:25:17;;;;;;;2.47;0.50;;;6.60;99.90;;;;;;5072628;28;20564;-91
2023/12/05 07:27:43;;;;;;;1.00;0.60;;;6.60;99.90;;;;;;5074258;28;20059;-90
2023/12/05 07:30:11;;;;;;;1.10;0.47;;;6.70;99.90;;;;;;5072381;28;20021;-90
2023/12/05 07:32:37;;;;;;;2.63;0.70;;;6.70;99.90;;;;;;5073894;28;20032;-90
2023/12/05 07:35:03;;;;;;;3.83;0.50;;;6.70;99.90;;;;;;5072415;28;20035;-90
2023/12/05 07:37:29;;;;;;;2.60;0.60;;;6.70;99.90;;;;;;5073237;28;20017;-90
2023/12/05 07:39:56;;;;;;;2.80;0.57;;;6.70;99.90;;;;;;5072561;28;20045;-90
2023/12/05 07:42:22;;;;;;;4.50;0.80;;;6.70;99.90;;;;;;5072327;28;20024;-90
2023/12/05 07:44:50;;;;;;;2.70;0.60;;;6.80;99.90;;;;;;5072630;28;20058;-90
2023/12/05 07:47:16;;;;;;;2.10;0.57;;;6.80;99.90;;;;;;5073014;28;20017;-90
2023/12/05 07:49:45;;;;;;;1.43;0.50;;;6.80;99.90;;;;;;5073936;28;20364;-90
2023/12/05 07:52:13;;;;;;;0.77;0.53;;;6.80;99.90;;;;;;5072534;28;20047;-90
2023/12/05 07:54:41;;;;;;;0.80;0.47;;;6.80;99.90;;;;;;5073164;28;20028;-90
2023/12/05 07:57:07;;;;;;;3.20;0.63;;;6.90;99.90;;;;;;5072267;28;20048;-90
2023/12/05 07:59:37;;;;;;;2.30;0.50;;;6.90;99.90;;;;;;5074498;28;20028;-91
2023/12/05 08:02:06;;;;;;;2.53;0.60;;;7.00;99.90;;;;;;5074203;28;20024;-94
2023/12/05 08:04:50;;;;;;;;;;;;;;;;;;;;;
2023/12/05 08:07:33;;;;;;;;;;;;;;;;;;;;;
2023/12/05 08:10:08;;;;;;;1.43;0.50;;;7.00;99.90;;;;;;5079919;28;20017;-94
2023/12/05 08:12:34;;;;;;;3.60;0.53;;;7.00;99.90;;;;;;5080098;28;20115;-91
2023/12/05 08:15:00;;;;;;;4.10;0.67;;;7.00;99.90;;;;;;5076496;28;20051;-89
2023/12/05 08:17:26;;;;;;;2.83;0.70;;;7.00;99.90;;;;;;5076070;28;20047;-90
2023/12/05 08:19:52;;;;;;;4.67;1.00;;;7.10;99.90;;;;;;5076205;28;20345;-88
2023/12/05 08:22:20;;;;;;;1.87;0.50;;;7.10;99.90;;;;;;5075502;28;20021;-91
2023/12/05 08:24:48;;;;;;;3.27;0.83;;;7.10;99.90;;;;;;5076147;28;20024;-91
2023/12/05 08:27:16;;;;;;;1.97;0.57;;;7.10;99.90;;;;;;5076729;28;20032;-93
2023/12/05 08:29:42;;;;;;;3.87;0.97;;;7.10;99.90;;;;;;5076958;28;20020;-87
2023/12/05 08:32:10;;;;;;;5.83;0.80;;;7.10;99.90;;;;;;5075491;28;20119;-90
2023/12/05 08:34:38;;;;;;;3.33;1.00;;;7.20;99.90;;;;;;5075906;28;20119;-89
2023/12/05 08:37:04;;;;;;;2.38;0.65;;;7.20;99.90;;;;;;5075492;28;20021;-89
2023/12/05 08:39:30;;;;;;;2.40;0.40;;;7.20;99.90;;;;;;5075894;28;20044;-88
2023/12/05 08:41:59;;;;;;;3.27;0.60;;;7.20;99.90;;;;;;5076002;28;20078;-88
2023/12/05 08:44:25;;;;;;;2.63;0.70;;;7.30;99.90;;;;;;5075055;28;20028;-87
2023/12/05 08:46:50;;;;;;;2.30;0.73;;;7.30;99.90;;;;;;5075807;28;20449;-89
2023/12/05 08:49:26;;;;;;;2.97;0.60;;;7.30;99.90;;;;;;5075014;28;20024;-90
2023/12/05 08:51:54;;;;;;;2.70;0.97;;;7.30;99.90;;;;;;5075739;28;20024;-93
2023/12/05 08:54:22;;;;;;;4.45;0.60;;;7.40;99.90;;;;;;5076185;28;20024;-92
2023/12/05 08:56:57;;;;;;;5.18;0.85;;;7.40;99.90;;;;;;5075511;28;20021;-92
2023/12/05 08:59:38;;;;;;;4.40;1.10;;;7.40;99.90;;;;;;5075589;28;20046;-94
2023/12/05 09:02:36;;;;;;;;;;;;;;;;;;;;;
2023/12/05 09:05:13;;;;;;;1.52;0.80;;;7.50;99.90;;;;;;5077271;28;20043;-94
2023/12/05 09:08:10;;;;;;;;;;;;;;;;;;;;;
2023/12/05 09:10:56;;;;;;;2.97;0.68;;;7.60;99.90;;;;;;5095704;28;20042;-93
2023/12/05 09:13:34;;;;;;;;;;;;;;;;;;;;;
2023/12/05 09:16:05;;;;;;;2.30;0.63;;;7.60;99.90;;;;;;5093942;28;20016;-93
2023/12/05 09:18:31;;;;;;;2.15;0.40;;;7.60;99.90;;;;;;5090568;28;20023;-90
2023/12/05 09:20:57;;;;;;;0.70;0.50;;;7.70;99.90;;;;;;5094421;28;20008;-88
2023/12/05 09:23:28;;;;;;;1.80;0.70;;;7.70;99.90;;;;;;5094241;28;20024;-92
2023/12/05 09:26:01;;;;;;;1.90;0.60;;;7.70;99.90;;;;;;5096207;28;20411;-93
2023/12/05 09:28:32;;;;;;;2.03;0.75;;;7.80;99.90;;;;;;5094565;28;20364;-91
2023/12/05 09:31:08;;;;;;;2.27;0.77;;;7.80;99.90;;;;;;5095047;28;20020;-92
2023/12/05 09:33:36;;;;;;;1.00;0.75;;;7.80;99.90;;;;;;5092717;28;20028;-92
2023/12/05 09:36:04;;;;;;;1.60;0.57;;;7.80;99.90;;;;;;5096215;28;20024;-92
2023/12/05 09:38:30;;;;;;;4.22;0.93;;;7.80;99.90;;;;;;5091448;28;20020;-89
2023/12/05 09:41:19;;;;;;;0.98;0.50;;;7.80;99.90;;;;;;5094119;28;20051;-93
2023/12/05 09:44:00;;;;;;;;;;;;;;;;;;;;;
2023/12/05 09:46:38;;;;;;;1.75;0.60;;;7.90;99.90;;;;;;5095204;28;20198;-91
2023/12/05 09:49:08;;;;;;;2.75;0.63;;;7.90;99.90;;;;;;5094917;28;20025;-91
2023/12/05 09:51:46;;;;;;;1.02;0.50;;;7.90;99.90;;;;;;5095483;28;20114;-92
2023/12/05 09:54:18;;;;;;;0.65;0.52;;;7.90;99.90;;;;;;5094298;28;20422;-92
2023/12/05 09:56:44;;;;;;;1.45;0.40;;;8.00;99.90;;;;;;5095845;28;20468;-83
2023/12/05 09:59:13;;;;;;;1.48;0.40;;;8.00;99.90;;;;;;5083679;28;20044;-90
2023/12/05 10:01:46;;;;;;;1.95;0.50;;;8.00;99.90;;;;;;5082642;28;20027;-91
2023/12/05 10:04:17;;;;;;;3.30;0.50;;;8.00;99.90;;;;;;5086561;28;20032;-91
2023/12/05 10:06:44;;;;;;;1.27;0.60;;;8.00;99.90;;;;;;5081779;28;20029;-89
2023/12/05 10:09:13;;;;;;;6.30;1.13;;;8.00;99.90;;;;;;5073406;28;20149;-89
2023/12/05 10:11:40;;;;;;;2.88;0.52;;;8.00;99.90;;;;;;5092895;28;20119;-89
2023/12/05 10:14:07;;;;;;;5.72;0.82;;;8.00;99.90;;;;;;5094110;28;20028;-90
2023/12/05 10:16:36;;;;;;;1.17;0.40;;;8.00;99.90;;;;;;5091573;28;20024;-90
2023/12/05 10:19:02;;;;;;;1.08;0.50;;;8.00;99.90;;;;;;5087988;28;20032;-90
2023/12/05 10:21:27;;;;;;;2.13;0.60;;;8.10;99.90;;;;;;5076273;28;20168;-90
2023/12/05 10:23:54;;;;;;;1.90;0.85;;;8.10;99.90;;;;;;5093304;28;20070;-91
2023/12/05 10:26:25;;;;;;;2.83;0.40;;;8.00;99.90;;;;;;5084640;28;20115;-89
2023/12/05 10:28:52;;;;;;;0.73;0.43;;;7.90;99.90;;;;;;5081141;28;20020;-92
2023/12/05 10:31:18;;;;;;;0.73;0.60;;;8.00;99.90;;;;;;5092890;28;20468;-91
2023/12/05 10:33:44;;;;;;;1.50;0.50;;;7.90;99.90;;;;;;5093516;28;20024;-91
2023/12/05 10:36:14;;;;;;;1.42;0.60;;;7.90;99.90;;;;;;5092793;28;20023;-93
2023/12/05 10:38:46;;;;;;;2.13;0.50;;;7.90;99.90;;;;;;5093694;28;20024;-85
2023/12/05 10:41:12;;;;;;;;;;;7.90;99.90;;;;;;5092958;28;20496;-90
2023/12/05 10:43:46;;;;;;;1.52;0.40;;;7.90;99.90;;;;;;5093004;28;19915;-90
2023/12/05 10:46:12;;;;;;;0.40;0.40;;;7.90;99.90;;;;;;5085111;28;20123;-91
2023/12/05 10:48:38;;;;;;;2.33;0.50;;;7.90;99.90;;;;;;5093195;28;20024;-87
2023/12/05 10:51:04;;;;;;;2.78;0.50;;;7.90;99.90;;;;;;5078615;28;20134;-88
2023/12/05 10:53:37;;;;;;;1.63;0.73;;;7.90;99.90;;;;;;5086696;28;20469;-90
2023/12/05 10:56:19;;;;;;;1.10;0.40;;;8.00;99.90;;;;;;5087094;28;20016;-88
2023/12/05 10:58:45;;;;;;;;;;;8.00;99.90;;;;;;5085554;28;20027;-88
2023/12/05 11:01:12;;;;;;;3.53;0.38;;;8.00;99.90;;;;;;5093775;28;19904;-89
2023/12/05 11:03:39;;;;;;;1.02;0.40;;;8.00;99.90;;;;;;5092895;28;20077;-89
2023/12/05 11:06:08;;;;;;;1.23;0.40;;;8.00;99.90;;;;;;5093117;28;20051;-86
2023/12/05 11:08:37;;;;;;;3.25;0.70;;;8.10;99.90;;;;;;5083353;28;20056;-88
2023/12/05 11:11:03;;;;;;;2.25;0.77;;;8.20;99.90;;;;;;5087199;28;20027;-90
2023/12/05 11:13:34;;;;;;;0.73;0.50;;;8.30;99.90;;;;;;5090959;28;20257;-89
2023/12/05 11:16:13;;;;;;;0.60;0.43;;;8.40;99.90;;;;;;5072678;28;20025;-92
2023/12/05 11:18:43;;;;;;;2.72;0.40;;;8.50;99.90;;;;;;5073482;28;20021;-92
2023/12/05 11:21:27;;;;;;;2.45;0.60;;;8.50;99.90;;;;;;5088051;28;20022;-94
2023/12/05 11:24:24;;;;;;;1.02;0.40;;;8.50;99.90;;;;;;5094164;28;20016;-94
2023/12/05 11:27:11;;;;;;;1.55;0.32;;;8.60;99.90;;;;;;5092725;28;20020;-93
2023/12/05 11:29:58;;;;;;;1.98;0.30;;;8.70;99.90;;;;;;5092592;28;20020;-88
2023/12/05 11:32:51;;;;;;;0.68;0.43;;;8.80;99.90;;;;;;5092214;28;20468;-90
2023/12/05 11:35:58;;;;;;;1.00;0.50;;;9.00;99.90;;;;;;5092978;28;20103;-93
2023/12/05 11:38:24;;;;;;;1.38;0.60;;;9.00;99.90;;;;;;5081768;28;20020;-92
2023/12/05 11:41:18;;;;;;;3.30;0.60;;;8.90;99.90;;;;;;5097956;28;20082;-94
2023/12/05 11:44:12;;;;;;;3.58;0.60;;;9.00;99.90;;;;;;5096743;28;20053;-91
2023/12/05 11:46:41;;;;;;;0.68;0.30;;;8.90;99.90;;;;;;5085349;28;20016;-92
2023/12/05 11:49:07;;;;;;;2.33;0.40;;;8.80;99.90;;;;;;5076729;28;20032;-94
2023/12/05 11:51:33;;;;;;;1.60;0.40;;;8.70;99.90;;;;;;5096344;28;20024;-94
2023/12/05 11:54:02;;;;;;;1.05;0.30;;;8.60;99.90;;;;;;5094779;28;20395;-93
2023/12/05 11:56:30;;;;;;;1.48;0.50;;;8.60;99.90;;;;;;5087331;28;20016;-91
2023/12/05 11:59:14;;;;;;;1.75;0.32;;;8.60;99.90;;;;;;5090386;28;20043;-93
2023/12/05 12:01:43;;;;;;;0.95;0.40;;;8.60;99.90;;;;;;5095941;28;20039;-90
2023/12/05 12:04:22;;;;;;;0.70;0.50;;;8.60;99.90;;;;;;5089307;28;20031;-90
2023/12/05 12:06:49;;;;;;;0.75;0.32;;;8.60;99.90;;;;;;5075500;28;20082;-89
2023/12/05 12:09:15;;;;;;;3.08;0.40;;;8.60;99.90;;;;;;5091331;28;20020;-90
2023/12/05 12:11:42;;;;;;;0.95;0.40;;;8.70;99.90;;;;;;5079230;28;20023;-88
2023/12/05 12:14:18;;;;;;;0.55;0.30;;;8.70;99.90;;;;;;5089381;28;20027;-89
2023/12/05 12:16:45;;;;;;;1.83;0.40;;;8.90;99.90;;;;;;5087319;28;20028;-87
2023/12/05 12:19:15;;;;;;;0.47;0.30;;;9.10;99.90;;;;;;5095886;28;20024;-90
2023/12/05 12:21:42;;;;;;;1.65;0.50;;;9.00;99.90;;;;;;5078993;28;20020;-91
2023/12/05 12:24:16;;;;;;;3.03;0.50;;;9.10;99.90;;;;;;5095877;28;20031;-90
2023/12/05 12:26:56;;;;;;;3.13;0.55;;;9.00;99.90;;;;;;5084136;28;20082;-92
2023/12/05 12:29:22;;;;;;;3.20;0.52;;;8.90;99.90;;;;;;5092235;28;20028;-93
2023/12/05 12:31:51;;;;;;;5.70;0.57;;;8.90;99.90;;;;;;5095734;28;20112;-95
2023/12/05 12:34:26;;;;;;;1.27;0.55;;;8.80;99.90;;;;;;5094967;28;20024;-96
2023/12/05 12:36:53;;;;;;;1.30;0.50;;;8.80;99.90;;;;;;5082920;28;20119;-92
2023/12/05 12:39:21;;;;;;;1.48;0.60;;;8.70;99.90;;;;;;5091546;28;20047;-91
2023/12/05 12:41:48;;;;;;;3.08;0.70;;;8.70;99.90;;;;;;5080013;28;20012;-91
2023/12/05 12:44:14;;;;;;;3.53;0.60;;;8.60;99.90;;;;;;5087646;28;20031;-89
2023/12/05 12:46:45;;;;;;;2.97;0.77;;;8.60;99.90;;;;;;5088972;28;20032;-92
2023/12/05 12:49:11;;;;;;;1.73;0.60;;;8.50;99.90;;;;;;5090732;28;20449;-93
2023/12/05 12:51:48;;;;;;;2.67;0.50;;;8.50;99.90;;;;;;5094589;28;20039;-91
2023/12/05 12:54:14;;;;;;;4.35;0.70;;;8.50;99.90;;;;;;5091346;28;20020;-93
2023/12/05 12:56:40;;;;;;;2.95;0.85;;;8.50;99.90;;;;;;5083707;28;20028;-93
2023/12/05 12:59:07;;;;;;;2.35;0.80;;;8.40;99.90;;;;;;5100170;28;20022;-93
2023/12/05 13:01:40;;;;;;;2.05;0.47;;;8.50;99.90;;;;;;5094256;28;20565;-92
2023/12/05 13:04:13;;;;;;;1.45;0.88;;;8.40;99.90;;;;;;5081478;28;20536;-91
2023/12/05 13:06:41;;;;;;;2.95;0.60;;;8.40;99.90;;;;;;5082970;28;20043;-91
2023/12/05 13:09:19;;;;;;;2.65;0.65;;;8.30;99.90;;;;;;5075170;28;20357;-92
2023/12/05 13:11:46;;;;;;;2.70;0.82;;;8.40;99.90;;;;;;5078519;28;20069;-93
2023/12/05 13:14:14;;;;;;;4.18;1.05;;;8.30;99.90;;;;;;5094759;28;20023;-88